sensor_id;sensor_type;location;lat;lon;timestamp;pressure;altitude;pressure_sealevel;temperature;humidity
52927;BME280;40783;49.710;8.842;2022-08-02T00:01:55;99286.94;;;21.18;68.92
52927;BME280;40783;49.710;8.842;2022-08-02T00:04:21;99279.22;;;21.15;68.81
52927;BME280;40783;49.710;8.842;2022-08-02T00:06:46;99284.03;;;21.13;68.48
52927;BME280;40783;49.710;8.842;2022-08-02T00:09:12;99288.25;;;21.09;68.72
52927;BME280;40783;49.710;8.842;2022-08-02T00:11:37;99286.81;;;21.07;69.45
52927;BME280;40783;49.710;8.842;2022-08-02T00:14:05;99281.16;;;21.08;69.07
52927;BME280;40783;49.710;8.842;2022-08-02T00:16:33;99285.53;;;21.09;69.08
52927;BME280;40783;49.710;8.842;2022-08-02T00:18:58;99281.16;;;21.08;69.04
52927;BME280;40783;49.710;8.842;2022-08-02T00:21:23;99282.81;;;21.09;69.06
52927;BME280;40783;49.710;8.842;2022-08-02T00:23:49;99286.16;;;21.11;69.12
52927;BME280;40783;49.710;8.842;2022-08-02T00:26:14;99279.88;;;21.11;69.45
52927;BME280;40783;49.710;8.842;2022-08-02T00:28:39;99281.97;;;21.09;69.15
52927;BME280;40783;49.710;8.842;2022-08-02T00:31:07;99276.16;;;21.05;69.44
52927;BME280;40783;49.710;8.842;2022-08-02T00:33:35;99279.09;;;21.03;69.24
52927;BME280;40783;49.710;8.842;2022-08-02T00:36:00;99278.50;;;21.01;69.28
52927;BME280;40783;49.710;8.842;2022-08-02T00:38:28;99277.06;;;20.99;69.69
52927;BME280;40783;49.710;8.842;2022-08-02T00:40:53;99274.78;;;20.96;69.57
52927;BME280;40783;49.710;8.842;2022-08-02T00:43:19;99269.19;;;20.90;69.43
52927;BME280;40783;49.710;8.842;2022-08-02T00:45:47;99272.97;;;20.89;70.14
52927;BME280;40783;49.710;8.842;2022-08-02T00:48:14;99276.75;;;20.88;69.88
52927;BME280;40783;49.710;8.842;2022-08-02T00:50:40;99276.97;;;20.87;69.94
52927;BME280;40783;49.710;8.842;2022-08-02T00:53:05;99282.41;;;20.87;69.66
52927;BME280;40783;49.710;8.842;2022-08-02T00:55:33;99278.84;;;20.86;70.00
52927;BME280;40783;49.710;8.842;2022-08-02T00:57:59;99280.94;;;20.84;70.03
52927;BME280;40783;49.710;8.842;2022-08-02T01:00:24;99284.34;;;20.80;70.90
52927;BME280;40783;49.710;8.842;2022-08-02T01:02:50;99292.84;;;20.58;71.15
52927;BME280;40783;49.710;8.842;2022-08-02T01:05:15;99279.06;;;20.59;70.94
52927;BME280;40783;49.710;8.842;2022-08-02T01:07:41;99283.00;;;20.64;70.61
52927;BME280;40783;49.710;8.842;2022-08-02T01:10:09;99291.97;;;20.64;70.50
52927;BME280;40783;49.710;8.842;2022-08-02T01:12:34;99291.16;;;20.64;70.53
52927;BME280;40783;49.710;8.842;2022-08-02T01:15:06;99300.34;;;20.63;70.65
52927;BME280;40783;49.710;8.842;2022-08-02T01:31:15;99307.53;;;20.50;71.15
52927;BME280;40783;49.710;8.842;2022-08-02T01:33:47;99315.44;;;20.52;71.10
52927;BME280;40783;49.710;8.842;2022-08-02T01:36:17;99320.06;;;20.51;70.96
52927;BME280;40783;49.710;8.842;2022-08-02T01:38:45;99316.72;;;20.49;70.95
52927;BME280;40783;49.710;8.842;2022-08-02T01:41:20;99309.63;;;20.48;71.05
52927;BME280;40783;49.710;8.842;2022-08-02T01:43:52;99319.66;;;20.48;71.15
52927;BME280;40783;49.710;8.842;2022-08-02T01:46:20;99318.84;;;20.47;71.28
52927;BME280;40783;49.710;8.842;2022-08-02T01:48:47;99326.38;;;20.45;71.42
52927;BME280;40783;49.710;8.842;2022-08-02T01:51:16;99312.19;;;20.43;71.32
52927;BME280;40783;49.710;8.842;2022-08-02T01:53:44;99310.94;;;20.39;71.07
52927;BME280;40783;49.710;8.842;2022-08-02T01:56:13;99310.59;;;20.28;72.52
52927;BME280;40783;49.710;8.842;2022-08-02T01:58:39;99312.31;;;20.16;72.88
52927;BME280;40783;49.710;8.842;2022-08-02T02:01:10;99307.31;;;20.20;72.23
52927;BME280;40783;49.710;8.842;2022-08-02T02:03:38;99309.34;;;20.24;72.10
52927;BME280;40783;49.710;8.842;2022-08-02T02:06:05;99303.94;;;20.24;72.34
52927;BME280;40783;49.710;8.842;2022-08-02T02:08:38;99309.88;;;20.08;72.89
52927;BME280;40783;49.710;8.842;2022-08-02T02:11:08;99315.69;;;20.11;72.79
52927;BME280;40783;49.710;8.842;2022-08-02T02:13:35;99308.56;;;20.17;72.61
52927;BME280;40783;49.710;8.842;2022-08-02T02:16:05;99302.69;;;20.20;72.58
52927;BME280;40783;49.710;8.842;2022-08-02T02:18:33;99299.97;;;20.20;72.43
52927;BME280;40783;49.710;8.842;2022-08-02T02:21:07;99304.34;;;20.21;72.76
52927;BME280;40783;49.710;8.842;2022-08-02T02:23:35;99300.59;;;20.22;72.30
52927;BME280;40783;49.710;8.842;2022-08-02T02:26:02;99303.13;;;20.17;72.96
52927;BME280;40783;49.710;8.842;2022-08-02T02:28:29;99303.75;;;20.19;72.79
52927;BME280;40783;49.710;8.842;2022-08-02T02:31:02;99289.34;;;20.19;72.80
52927;BME280;40783;49.710;8.842;2022-08-02T02:33:30;99296.03;;;20.16;72.89
52927;BME280;40783;49.710;8.842;2022-08-02T02:36:00;99294.38;;;20.15;72.88
52927;BME280;40783;49.710;8.842;2022-08-02T02:38:31;99281.84;;;20.14;72.95
52927;BME280;40783;49.710;8.842;2022-08-02T02:41:00;99288.34;;;20.13;72.94
52927;BME280;40783;49.710;8.842;2022-08-02T02:43:31;99282.31;;;20.11;73.18
52927;BME280;40783;49.710;8.842;2022-08-02T02:45:58;99284.41;;;20.09;73.09
52927;BME280;40783;49.710;8.842;2022-08-02T02:48:26;99281.50;;;20.04;72.96
52927;BME280;40783;49.710;8.842;2022-08-02T02:50:53;99285.28;;;20.02;73.23
52927;BME280;40783;49.710;8.842;2022-08-02T02:53:18;99289.03;;;20.01;73.71
52927;BME280;40783;49.710;8.842;2022-08-02T02:55:47;99283.19;;;19.98;73.37
52927;BME280;40783;49.710;8.842;2022-08-02T02:58:15;99289.03;;;19.95;73.64
52927;BME280;40783;49.710;8.842;2022-08-02T03:00:43;99297.00;;;19.96;73.46
52927;BME280;40783;49.710;8.842;2022-08-02T03:03:28;99292.81;;;19.94;73.25
52927;BME280;40783;49.710;8.842;2022-08-02T03:05:59;99294.09;;;19.91;73.42
52927;BME280;40783;49.710;8.842;2022-08-02T03:08:28;99294.09;;;19.91;73.35
52927;BME280;40783;49.710;8.842;2022-08-02T03:10:53;99298.03;;;19.89;73.40
52927;BME280;40783;49.710;8.842;2022-08-02T03:13:19;99299.53;;;19.84;73.51
52927;BME280;40783;49.710;8.842;2022-08-02T03:15:44;99304.09;;;19.84;73.56
52927;BME280;40783;49.710;8.842;2022-08-02T03:18:28;99305.16;;;19.83;73.49
52927;BME280;40783;49.710;8.842;2022-08-02T03:20:58;99304.53;;;19.81;73.61
52927;BME280;40783;49.710;8.842;2022-08-02T03:23:24;99306.00;;;19.77;73.61
52927;BME280;40783;49.710;8.842;2022-08-02T03:25:49;99307.06;;;19.76;73.80
52927;BME280;40783;49.710;8.842;2022-08-02T03:28:14;99314.56;;;19.73;73.68
52927;BME280;40783;49.710;8.842;2022-08-02T03:30:43;99312.91;;;19.72;73.93
52927;BME280;40783;49.710;8.842;2022-08-02T03:33:08;99315.00;;;19.70;74.05
52927;BME280;40783;49.710;8.842;2022-08-02T03:35:35;99320.03;;;19.67;74.06
52927;BME280;40783;49.710;8.842;2022-08-02T03:38:04;99308.34;;;19.66;74.11
52927;BME280;40783;49.710;8.842;2022-08-02T03:40:32;99317.94;;;19.62;74.33
52927;BME280;40783;49.710;8.842;2022-08-02T03:42:58;99316.28;;;19.61;74.17
52927;BME280;40783;49.710;8.842;2022-08-02T03:45:24;99309.22;;;19.60;74.08
52927;BME280;40783;49.710;8.842;2022-08-02T03:47:52;99308.38;;;19.60;74.36
52927;BME280;40783;49.710;8.842;2022-08-02T03:50:17;99309.84;;;19.55;74.43
52927;BME280;40783;49.710;8.842;2022-08-02T03:52:44;99315.50;;;19.54;74.42
52927;BME280;40783;49.710;8.842;2022-08-02T03:55:11;99304.66;;;19.54;74.49
52927;BME280;40783;49.710;8.842;2022-08-02T03:57:39;99314.66;;;19.53;74.64
52927;BME280;40783;49.710;8.842;2022-08-02T04:00:09;99309.69;;;19.43;74.79
52927;BME280;40783;49.710;8.842;2022-08-02T04:02:35;99316.34;;;19.41;75.29
52927;BME280;40783;49.710;8.842;2022-08-02T04:05:00;99312.19;;;19.38;75.03
52927;BME280;40783;49.710;8.842;2022-08-02T04:07:26;99313.44;;;19.42;75.08
52927;BME280;40783;49.710;8.842;2022-08-02T04:09:51;99308.00;;;19.42;74.73
52927;BME280;40783;49.710;8.842;2022-08-02T04:12:17;99311.75;;;19.41;74.73
52927;BME280;40783;49.710;8.842;2022-08-02T04:14:42;99319.69;;;19.36;74.98
52927;BME280;40783;49.710;8.842;2022-08-02T04:17:10;99320.50;;;19.37;74.79
52927;BME280;40783;49.710;8.842;2022-08-02T04:19:42;99325.13;;;19.36;74.88
52927;BME280;40783;49.710;8.842;2022-08-02T04:22:20;99323.03;;;19.38;74.99
52927;BME280;40783;49.710;8.842;2022-08-02T04:24:54;99324.69;;;19.39;74.99
52927;BME280;40783;49.710;8.842;2022-08-02T04:27:23;99318.44;;;19.39;74.68
52927;BME280;40783;49.710;8.842;2022-08-02T04:29:52;99319.28;;;19.39;74.62
52927;BME280;40783;49.710;8.842;2022-08-02T04:32:23;99321.78;;;19.34;75.34
52927;BME280;40783;49.710;8.842;2022-08-02T04:34:51;99313.03;;;19.32;75.34
52927;BME280;40783;49.710;8.842;2022-08-02T04:37:17;99325.53;;;19.33;74.89
52927;BME280;40783;49.710;8.842;2022-08-02T04:39:47;99320.13;;;19.33;74.85
52927;BME280;40783;49.710;8.842;2022-08-02T04:42:20;99320.75;;;19.35;75.24
52927;BME280;40783;49.710;8.842;2022-08-02T04:44:49;99316.78;;;19.31;75.19
52927;BME280;40783;49.710;8.842;2022-08-02T04:47:15;99322.00;;;19.26;75.09
52927;BME280;40783;49.710;8.842;2022-08-02T04:49:42;99328.47;;;19.25;75.00
52927;BME280;40783;49.710;8.842;2022-08-02T04:52:08;99324.72;;;19.26;75.51
52927;BME280;40783;49.710;8.842;2022-08-02T04:54:35;99326.81;;;19.24;74.85
52927;BME280;40783;49.710;8.842;2022-08-02T04:57:08;99323.47;;;19.22;74.63
52927;BME280;40783;49.710;8.842;2022-08-02T04:59:52;99326.81;;;19.24;75.18
52927;BME280;40783;49.710;8.842;2022-08-02T05:02:17;99332.66;;;19.21;74.85
52927;BME280;40783;49.710;8.842;2022-08-02T05:04:43;99334.75;;;19.25;75.15
52927;BME280;40783;49.710;8.842;2022-08-02T05:07:08;99335.97;;;19.23;75.45
52927;BME280;40783;49.710;8.842;2022-08-02T05:09:33;99330.97;;;19.20;74.92
52927;BME280;40783;49.710;8.842;2022-08-02T05:12:04;99341.00;;;19.19;75.71
52927;BME280;40783;49.710;8.842;2022-08-02T05:14:29;99335.97;;;19.23;74.94
52927;BME280;40783;49.710;8.842;2022-08-02T05:16:54;99336.63;;;19.18;75.84
52927;BME280;40783;49.710;8.842;2022-08-02T05:19:20;99345.59;;;19.25;75.51
52927;BME280;40783;49.710;8.842;2022-08-02T05:21:45;99349.31;;;19.31;75.79
52927;BME280;40783;49.710;8.842;2022-08-02T05:24:13;99347.63;;;19.37;76.89
52927;BME280;40783;49.710;8.842;2022-08-02T05:26:44;99350.16;;;19.32;75.94
52927;BME280;40783;49.710;8.842;2022-08-02T05:29:10;99340.97;;;19.39;75.90
52927;BME280;40783;49.710;8.842;2022-08-02T05:31:35;99351.38;;;19.49;75.79
52927;BME280;40783;49.710;8.842;2022-08-02T05:34:11;99345.13;;;19.42;76.16
52927;BME280;40783;49.710;8.842;2022-08-02T05:36:42;99352.22;;;19.50;76.52
52927;BME280;40783;49.710;8.842;2022-08-02T05:39:18;99344.72;;;19.52;76.28
52927;BME280;40783;49.710;8.842;2022-08-02T05:41:46;99334.25;;;19.55;75.88
52927;BME280;40783;49.710;8.842;2022-08-02T05:44:14;99334.69;;;19.59;75.56
52927;BME280;40783;49.710;8.842;2022-08-02T05:46:39;99341.94;;;19.65;75.04
52927;BME280;40783;49.710;8.842;2022-08-02T05:49:05;99338.81;;;19.68;75.92
52927;BME280;40783;49.710;8.842;2022-08-02T05:57:22;99338.75;;;19.82;75.86
52927;BME280;40783;49.710;8.842;2022-08-02T06:00:02;99348.16;;;19.86;75.64
52927;BME280;40783;49.710;8.842;2022-08-02T06:07:43;99355.47;;;19.79;83.11
52927;BME280;40783;49.710;8.842;2022-08-02T06:10:10;99358.38;;;19.97;81.56
52927;BME280;40783;49.710;8.842;2022-08-02T06:12:50;99361.69;;;19.99;77.80
52927;BME280;40783;49.710;8.842;2022-08-02T06:15:18;99354.47;;;20.25;77.76
52927;BME280;40783;49.710;8.842;2022-08-02T06:17:46;99351.00;;;20.50;75.22
52927;BME280;40783;49.710;8.842;2022-08-02T06:20:13;99354.50;;;20.89;73.20
52927;BME280;40783;49.710;8.842;2022-08-02T06:22:43;99350.53;;;21.17;74.26
52927;BME280;40783;49.710;8.842;2022-08-02T06:25:12;99357.16;;;21.22;72.92
52927;BME280;40783;49.710;8.842;2022-08-02T06:27:39;99352.03;;;21.32;75.43
52927;BME280;40783;49.710;8.842;2022-08-02T06:30:08;99346.00;;;21.30;74.04
52927;BME280;40783;49.710;8.842;2022-08-02T06:32:37;99349.13;;;21.33;75.80
52927;BME280;40783;49.710;8.842;2022-08-02T06:35:06;99342.50;;;21.23;76.88
52927;BME280;40783;49.710;8.842;2022-08-02T06:45:21;99353.72;;;21.33;75.81
52927;BME280;40783;49.710;8.842;2022-08-02T06:47:46;99349.13;;;21.52;75.58
52927;BME280;40783;49.710;8.842;2022-08-02T06:50:12;99358.75;;;21.73;76.02
52927;BME280;40783;49.710;8.842;2022-08-02T06:52:37;99352.81;;;21.83;74.14
52927;BME280;40783;49.710;8.842;2022-08-02T06:55:03;99349.22;;;22.01;74.07
52927;BME280;40783;49.710;8.842;2022-08-02T06:57:30;99354.22;;;22.04;74.64
52927;BME280;40783;49.710;8.842;2022-08-02T06:59:56;99354.81;;;21.88;74.75
52927;BME280;40783;49.710;8.842;2022-08-02T07:02:25;99353.31;;;22.11;73.62
52927;BME280;40783;49.710;8.842;2022-08-02T07:04:53;99352.28;;;22.23;71.43
52927;BME280;40783;49.710;8.842;2022-08-02T07:07:19;99349.44;;;22.49;71.31
52927;BME280;40783;49.710;8.842;2022-08-02T07:09:47;99363.03;;;22.67;69.64
52927;BME280;40783;49.710;8.842;2022-08-02T07:12:13;99352.84;;;22.75;69.27
52927;BME280;40783;49.710;8.842;2022-08-02T07:14:41;99355.94;;;22.90;69.97
52927;BME280;40783;49.710;8.842;2022-08-02T07:17:09;99362.38;;;23.08;68.74
52927;BME280;40783;49.710;8.842;2022-08-02T07:19:36;99362.53;;;23.37;67.56
52927;BME280;40783;49.710;8.842;2022-08-02T07:22:07;99366.56;;;23.46;66.00
52927;BME280;40783;49.710;8.842;2022-08-02T07:24:33;99359.34;;;23.40;65.60
52927;BME280;40783;49.710;8.842;2022-08-02T07:26:58;99366.44;;;23.41;64.11
52927;BME280;40783;49.710;8.842;2022-08-02T07:29:26;99364.66;;;23.59;61.91
52927;BME280;40783;49.710;8.842;2022-08-02T07:31:54;99351.84;;;23.47;63.62
52927;BME280;40783;49.710;8.842;2022-08-02T07:34:25;99355.78;;;23.39;63.17
52927;BME280;40783;49.710;8.842;2022-08-02T07:36:50;99362.19;;;23.45;61.90
52927;BME280;40783;49.710;8.842;2022-08-02T07:39:18;99356.63;;;23.52;59.09
52927;BME280;40783;49.710;8.842;2022-08-02T07:41:43;99354.81;;;23.58;57.81
52927;BME280;40783;49.710;8.842;2022-08-02T07:44:12;99346.66;;;23.46;51.91
52927;BME280;40783;49.710;8.842;2022-08-02T07:46:40;99349.09;;;23.71;52.82
52927;BME280;40783;49.710;8.842;2022-08-02T07:49:06;99343.72;;;23.88;57.05
52927;BME280;40783;49.710;8.842;2022-08-02T07:51:34;99352.75;;;24.00;51.44
52927;BME280;40783;49.710;8.842;2022-08-02T07:54:00;99348.88;;;23.61;51.88
52927;BME280;40783;49.710;8.842;2022-08-02T07:56:28;99348.41;;;23.64;50.56
52927;BME280;40783;49.710;8.842;2022-08-02T07:58:55;99345.69;;;23.64;55.31
52927;BME280;40783;49.710;8.842;2022-08-02T08:01:28;99336.41;;;23.65;47.65
52927;BME280;40783;49.710;8.842;2022-08-02T08:03:54;99340.81;;;23.66;47.20
52927;BME280;40783;49.710;8.842;2022-08-02T08:06:19;99356.94;;;23.79;47.24
52927;BME280;40783;49.710;8.842;2022-08-02T08:08:47;99361.88;;;24.06;47.86
52927;BME280;40783;49.710;8.842;2022-08-02T08:11:12;99349.50;;;24.15;47.77
52927;BME280;40783;49.710;8.842;2022-08-02T08:13:38;99341.88;;;24.18;48.31
52927;BME280;40783;49.710;8.842;2022-08-02T08:16:05;99340.06;;;24.23;44.95
52927;BME280;40783;49.710;8.842;2022-08-02T08:18:31;99348.69;;;24.03;45.42
52927;BME280;40783;49.710;8.842;2022-08-02T08:20:56;99349.34;;;23.81;46.69
52927;BME280;40783;49.710;8.842;2022-08-02T08:23:24;99350.06;;;23.65;49.62
52927;BME280;40783;49.710;8.842;2022-08-02T08:25:50;99352.78;;;23.65;50.74
52927;BME280;40783;49.710;8.842;2022-08-02T08:28:15;99340.81;;;23.42;49.59
52927;BME280;40783;49.710;8.842;2022-08-02T08:30:43;99348.22;;;23.30;52.72
52927;BME280;40783;49.710;8.842;2022-08-02T08:33:08;99352.94;;;23.34;52.27
52927;BME280;40783;49.710;8.842;2022-08-02T08:35:34;99355.31;;;23.31;47.78
52927;BME280;40783;49.710;8.842;2022-08-02T08:37:59;99344.75;;;23.34;46.07
52927;BME280;40783;49.710;8.842;2022-08-02T08:40:25;99356.38;;;23.41;48.49
52927;BME280;40783;49.710;8.842;2022-08-02T08:42:53;99353.03;;;23.51;47.54
52927;BME280;40783;49.710;8.842;2022-08-02T08:45:18;99346.66;;;23.46;48.61
52927;BME280;40783;49.710;8.842;2022-08-02T08:47:46;99341.66;;;23.54;49.68
52927;BME280;40783;49.710;8.842;2022-08-02T08:50:20;99353.16;;;23.56;49.64
52927;BME280;40783;49.710;8.842;2022-08-02T08:53:08;99347.56;;;23.63;50.82
52927;BME280;40783;49.710;8.842;2022-08-02T08:55:35;99352.81;;;23.53;47.14
52927;BME280;40783;49.710;8.842;2022-08-02T08:58:03;99343.91;;;23.58;48.38
52927;BME280;40783;49.710;8.842;2022-08-02T09:00:33;99351.97;;;23.52;49.95
52927;BME280;40783;49.710;8.842;2022-08-02T09:03:04;99350.53;;;23.62;47.12
52927;BME280;40783;49.710;8.842;2022-08-02T09:05:30;99351.97;;;23.52;46.23
52927;BME280;40783;49.710;8.842;2022-08-02T09:07:58;99357.59;;;23.86;46.16
52927;BME280;40783;49.710;8.842;2022-08-02T09:10:49;99367.97;;;23.73;47.26
52927;BME280;40783;49.710;8.842;2022-08-02T09:13:22;99364.78;;;23.64;45.84
52927;BME280;40783;49.710;8.842;2022-08-02T09:15:58;99352.69;;;23.60;45.71
52927;BME280;40783;49.710;8.842;2022-08-02T09:18:43;99350.59;;;23.91;47.50
52927;BME280;40783;49.710;8.842;2022-08-02T09:21:12;99352.78;;;23.77;46.16
52927;BME280;40783;49.710;8.842;2022-08-02T09:23:44;99352.66;;;23.83;46.23
52927;BME280;40783;49.710;8.842;2022-08-02T09:26:14;99345.53;;;23.82;46.34
52927;BME280;40783;49.710;8.842;2022-08-02T09:28:42;99346.00;;;23.79;47.19
52927;BME280;40783;49.710;8.842;2022-08-02T09:31:20;99335.47;;;23.59;48.87
52927;BME280;40783;49.710;8.842;2022-08-02T09:33:57;99339.47;;;23.80;46.93
52927;BME280;40783;49.710;8.842;2022-08-02T09:36:23;99341.09;;;24.05;46.88
52927;BME280;40783;49.710;8.842;2022-08-02T09:38:58;99332.81;;;24.29;45.34
52927;BME280;40783;49.710;8.842;2022-08-02T09:41:29;99328.03;;;24.36;45.91
52927;BME280;40783;49.710;8.842;2022-08-02T09:43:56;99329.28;;;24.17;46.26
52927;BME280;40783;49.710;8.842;2022-08-02T09:46:24;99330.56;;;24.26;44.76
52927;BME280;40783;49.710;8.842;2022-08-02T09:48:57;99326.88;;;24.32;43.83
52927;BME280;40783;49.710;8.842;2022-08-02T09:51:38;99324.94;;;24.33;43.96
52927;BME280;40783;49.710;8.842;2022-08-02T09:54:06;99329.44;;;24.56;45.71
52927;BME280;40783;49.710;8.842;2022-08-02T09:59:13;99319.72;;;24.31;43.09
52927;BME280;40783;49.710;8.842;2022-08-02T10:01:40;99325.78;;;24.33;45.21
52927;BME280;40783;49.710;8.842;2022-08-02T10:04:08;99329.34;;;24.51;46.23
52927;BME280;40783;49.710;8.842;2022-08-02T10:06:36;99315.47;;;24.69;42.68
52927;BME280;40783;49.710;8.842;2022-08-02T10:09:02;99315.78;;;24.56;42.32
52927;BME280;40783;49.710;8.842;2022-08-02T10:11:28;99320.00;;;24.47;45.14
52927;BME280;40783;49.710;8.842;2022-08-02T10:13:54;99325.50;;;24.18;47.00
52927;BME280;40783;49.710;8.842;2022-08-02T10:16:24;99313.06;;;24.10;47.68
52927;BME280;40783;49.710;8.842;2022-08-02T10:18:52;99313.19;;;24.32;46.42
52927;BME280;40783;49.710;8.842;2022-08-02T10:21:43;99311.63;;;24.36;47.57
52927;BME280;40783;49.710;8.842;2022-08-02T10:24:11;99307.97;;;24.48;44.81
52927;BME280;40783;49.710;8.842;2022-08-02T10:26:41;99302.31;;;24.83;46.41
52927;BME280;40783;49.710;8.842;2022-08-02T10:29:10;99309.16;;;24.69;45.42
52927;BME280;40783;49.710;8.842;2022-08-02T10:31:44;99300.72;;;25.04;43.50
52927;BME280;40783;49.710;8.842;2022-08-02T10:34:15;99304.38;;;24.93;43.49
52927;BME280;40783;49.710;8.842;2022-08-02T10:36:42;99295.09;;;24.60;46.20
52927;BME280;40783;49.710;8.842;2022-08-02T10:39:13;99306.47;;;24.86;44.20
52927;BME280;40783;49.710;8.842;2022-08-02T10:41:50;99299.94;;;24.87;43.54
52927;BME280;40783;49.710;8.842;2022-08-02T10:46:48;99292.75;;;24.69;45.42
52927;BME280;40783;49.710;8.842;2022-08-02T10:49:19;99291.75;;;24.41;47.51
52927;BME280;40783;49.710;8.842;2022-08-02T10:54:26;99272.41;;;24.77;45.38
52927;BME280;40783;49.710;8.842;2022-08-02T10:56:53;99284.03;;;24.84;44.63
52927;BME280;40783;49.710;8.842;2022-08-02T10:59:35;99282.19;;;24.72;44.06
52927;BME280;40783;49.710;8.842;2022-08-02T11:02:02;99280.50;;;24.71;44.23
52927;BME280;40783;49.710;8.842;2022-08-02T11:07:15;99285.44;;;24.40;46.15
52927;BME280;40783;49.710;8.842;2022-08-02T11:09:46;99269.47;;;24.32;46.88
52927;BME280;40783;49.710;8.842;2022-08-02T11:12:19;99278.00;;;24.53;45.91
52927;BME280;40783;49.710;8.842;2022-08-02T11:15:05;99278.38;;;24.73;45.15
52927;BME280;40783;49.710;8.842;2022-08-02T11:17:56;99265.00;;;24.94;46.27
52927;BME280;40783;49.710;8.842;2022-08-02T11:20:26;99260.44;;;25.17;47.32
52927;BME280;40783;49.710;8.842;2022-08-02T11:22:53;99256.91;;;25.83;42.04
52927;BME280;40783;49.710;8.842;2022-08-02T11:27:48;99251.56;;;25.49;41.86
52927;BME280;40783;49.710;8.842;2022-08-02T11:30:17;99253.72;;;25.47;42.07
52927;BME280;40783;49.710;8.842;2022-08-02T11:32:44;99245.94;;;25.39;44.77
52927;BME280;40783;49.710;8.842;2022-08-02T11:35:10;99249.63;;;25.27;43.83
52927;BME280;40783;49.710;8.842;2022-08-02T11:37:41;99246.22;;;25.59;43.63
52927;BME280;40783;49.710;8.842;2022-08-02T11:40:12;99245.84;;;25.73;44.02
52927;BME280;40783;49.710;8.842;2022-08-02T11:42:42;99241.50;;;25.77;43.97
52927;BME280;40783;49.710;8.842;2022-08-02T11:45:13;99246.84;;;25.67;42.99
52927;BME280;40783;49.710;8.842;2022-08-02T11:47:49;99245.53;;;25.69;41.93
52927;BME280;40783;49.710;8.842;2022-08-02T11:50:21;99248.13;;;25.81;40.72
52927;BME280;40783;49.710;8.842;2022-08-02T11:52:50;99242.47;;;25.93;40.70
52927;BME280;40783;49.710;8.842;2022-08-02T11:55:28;99236.66;;;25.84;41.98
52927;BME280;40783;49.710;8.842;2022-08-02T11:58:02;99239.63;;;26.10;41.93
52927;BME280;40783;49.710;8.842;2022-08-02T12:00:32;99232.19;;;25.78;43.04
52927;BME280;40783;49.710;8.842;2022-08-02T12:03:01;99233.44;;;25.92;44.45
52927;BME280;40783;49.710;8.842;2022-08-02T12:05:26;99232.84;;;25.41;43.78
52927;BME280;40783;49.710;8.842;2022-08-02T12:07:52;99237.94;;;25.54;44.48
52927;BME280;40783;49.710;8.842;2022-08-02T12:10:23;99233.63;;;25.19;42.25
52927;BME280;40783;49.710;8.842;2022-08-02T12:18:01;99236.31;;;26.08;42.08
52927;BME280;40783;49.710;8.842;2022-08-02T12:20:46;99230.47;;;25.72;44.21
52927;BME280;40783;49.710;8.842;2022-08-02T12:23:12;99233.66;;;26.13;45.33
52927;BME280;40783;49.710;8.842;2022-08-02T12:25:37;99226.63;;;26.22;43.88
52927;BME280;40783;49.710;8.842;2022-08-02T12:28:19;99233.72;;;26.18;42.05
52927;BME280;40783;49.710;8.842;2022-08-02T12:30:51;99228.38;;;26.34;40.72
52927;BME280;40783;49.710;8.842;2022-08-02T12:33:20;99231.63;;;26.63;39.38
52927;BME280;40783;49.710;8.842;2022-08-02T12:35:46;99234.63;;;26.62;38.93
52927;BME280;40783;49.710;8.842;2022-08-02T12:38:19;99235.38;;;26.52;40.17
52927;BME280;40783;49.710;8.842;2022-08-02T12:40:47;99234.97;;;26.33;39.78
52927;BME280;40783;49.710;8.842;2022-08-02T12:43:23;99227.34;;;26.40;39.82
52927;BME280;40783;49.710;8.842;2022-08-02T12:45:51;99228.84;;;26.58;39.74
52927;BME280;40783;49.710;8.842;2022-08-02T12:48:34;99230.28;;;26.66;39.22
52927;BME280;40783;49.710;8.842;2022-08-02T12:51:18;99221.03;;;26.77;39.14
52927;BME280;40783;49.710;8.842;2022-08-02T12:53:43;99219.53;;;26.92;40.93
52927;BME280;40783;49.710;8.842;2022-08-02T12:56:11;99214.03;;;26.92;39.14
52927;BME280;40783;49.710;8.842;2022-08-02T12:58:47;99203.66;;;27.04;40.53
52927;BME280;40783;49.710;8.842;2022-08-02T13:01:19;99201.03;;;27.30;39.49
52927;BME280;40783;49.710;8.842;2022-08-02T13:03:45;99209.72;;;27.11;39.04
52927;BME280;40783;49.710;8.842;2022-08-02T13:06:10;99198.72;;;27.01;38.77
52927;BME280;40783;49.710;8.842;2022-08-02T13:08:38;99201.91;;;26.83;40.19
52927;BME280;40783;49.710;8.842;2022-08-02T13:11:03;99202.91;;;26.76;40.46
52927;BME280;40783;49.710;8.842;2022-08-02T13:13:31;99199.44;;;26.48;39.58
52927;BME280;40783;49.710;8.842;2022-08-02T13:15:57;99206.03;;;26.47;40.86
52927;BME280;40783;49.710;8.842;2022-08-02T13:18:23;99210.94;;;26.50;41.79
52927;BME280;40783;49.710;8.842;2022-08-02T13:20:48;99206.47;;;26.34;40.97
52927;BME280;40783;49.710;8.842;2022-08-02T13:23:16;99203.63;;;26.56;38.33
52927;BME280;40783;49.710;8.842;2022-08-02T13:25:42;99197.84;;;26.58;38.82
52927;BME280;40783;49.710;8.842;2022-08-02T13:28:09;99199.63;;;26.74;38.91
52927;BME280;40783;49.710;8.842;2022-08-02T13:30:35;99196.91;;;26.79;42.68
52927;BME280;40783;49.710;8.842;2022-08-02T13:33:01;99202.47;;;26.52;42.18
52927;BME280;40783;49.710;8.842;2022-08-02T13:35:29;99194.44;;;26.40;39.79
52927;BME280;40783;49.710;8.842;2022-08-02T13:37:58;99193.44;;;26.57;40.76
52927;BME280;40783;49.710;8.842;2022-08-02T13:40:28;99186.00;;;26.85;39.84
52927;BME280;40783;49.710;8.842;2022-08-02T13:42:54;99181.16;;;27.02;39.73
52927;BME280;40783;49.710;8.842;2022-08-02T13:45:19;99174.66;;;26.71;40.22
52927;BME280;40783;49.710;8.842;2022-08-02T13:47:47;99175.16;;;26.67;39.41
52927;BME280;40783;49.710;8.842;2022-08-02T13:50:13;99185.22;;;26.57;41.34
52927;BME280;40783;49.710;8.842;2022-08-02T13:52:39;99181.34;;;26.52;40.07
52927;BME280;40783;49.710;8.842;2022-08-02T13:55:04;99187.41;;;26.49;41.46
52927;BME280;40783;49.710;8.842;2022-08-02T13:57:32;99176.34;;;26.39;40.95
52927;BME280;40783;49.710;8.842;2022-08-02T13:59:57;99175.22;;;26.35;42.08